sensor_id;sensor_type;location;lat;lon;timestamp;P1;durP1;ratioP1;P2;durP2;ratioP2
84849;SDS011;75096;49.576;11.024;2024-03-02T00:00:18;24.63;;;12.18;;
84849;SDS011;75096;49.576;11.024;2024-03-02T00:01:22;26.65;;;11.63;;
84849;SDS011;75096;49.576;11.024;2024-03-02T00:02:24;24.55;;;12.50;;
84849;SDS011;75096;49.576;11.024;2024-03-02T00:03:26;24.88;;;13.20;;
84849;SDS011;75096;49.576;11.024;2024-03-02T00:04:28;26.98;;;12.65;;
84849;SDS011;75096;49.576;11.024;2024-03-02T00:05:29;23.88;;;12.60;;
84849;SDS011;75096;49.576;11.024;2024-03-02T00:06:31;23.67;;;12.82;;
84849;SDS011;75096;49.576;11.024;2024-03-02T00:07:33;26.88;;;13.38;;
84849;SDS011;75096;49.576;11.024;2024-03-02T00:08:34;26.42;;;13.45;;
84849;SDS011;75096;49.576;11.024;2024-03-02T00:09:36;27.15;;;13.35;;
84849;SDS011;75096;49.576;11.024;2024-03-02T00:10:38;27.35;;;13.80;;
84849;SDS011;75096;49.576;11.024;2024-03-02T00:11:43;23.92;;;13.55;;
84849;SDS011;75096;49.576;11.024;2024-03-02T00:12:45;31.15;;;14.25;;
84849;SDS011;75096;49.576;11.024;2024-03-02T00:13:48;28.40;;;13.85;;
84849;SDS011;75096;49.576;11.024;2024-03-02T00:14:50;27.88;;;13.52;;
84849;SDS011;75096;49.576;11.024;2024-03-02T00:15:52;23.85;;;12.98;;
84849;SDS011;75096;49.576;11.024;2024-03-02T00:16:55;25.92;;;13.00;;
84849;SDS011;75096;49.576;11.024;2024-03-02T00:17:57;25.98;;;13.32;;
84849;SDS011;75096;49.576;11.024;2024-03-02T00:19:03;26.92;;;12.88;;
84849;SDS011;75096;49.576;11.024;2024-03-02T00:20:06;25.90;;;13.10;;
84849;SDS011;75096;49.576;11.024;2024-03-02T00:21:11;27.40;;;13.35;;
84849;SDS011;75096;49.576;11.024;2024-03-02T00:22:16;26.00;;;12.93;;
84849;SDS011;75096;49.576;11.024;2024-03-02T00:23:17;28.10;;;14.20;;
84849;SDS011;75096;49.576;11.024;2024-03-02T00:24:30;26.15;;;12.85;;
84849;SDS011;75096;49.576;11.024;2024-03-02T00:25:41;29.40;;;14.85;;
84849;SDS011;75096;49.576;11.024;2024-03-02T00:26:45;24.77;;;13.32;;
84849;SDS011;75096;49.576;11.024;2024-03-02T00:27:50;26.67;;;13.80;;
84849;SDS011;75096;49.576;11.024;2024-03-02T00:28:53;24.33;;;13.43;;
84849;SDS011;75096;49.576;11.024;2024-03-02T00:29:58;28.55;;;13.88;;
84849;SDS011;75096;49.576;11.024;2024-03-02T00:31:03;26.65;;;13.23;;
84849;SDS011;75096;49.576;11.024;2024-03-02T00:32:09;25.45;;;13.80;;
84849;SDS011;75096;49.576;11.024;2024-03-02T00:33:14;28.75;;;12.93;;
84849;SDS011;75096;49.576;11.024;2024-03-02T00:34:16;24.83;;;13.90;;
84849;SDS011;75096;49.576;11.024;2024-03-02T00:35:18;27.23;;;13.68;;
84849;SDS011;75096;49.576;11.024;2024-03-02T00:36:22;25.90;;;12.88;;
84849;SDS011;75096;49.576;11.024;2024-03-02T00:37:26;27.35;;;14.30;;
84849;SDS011;75096;49.576;11.024;2024-03-02T00:38:28;26.92;;;13.65;;
84849;SDS011;75096;49.576;11.024;2024-03-02T00:39:30;27.15;;;13.07;;
84849;SDS011;75096;49.576;11.024;2024-03-02T00:40:32;26.30;;;12.85;;
84849;SDS011;75096;49.576;11.024;2024-03-02T00:41:34;26.70;;;13.60;;
84849;SDS011;75096;49.576;11.024;2024-03-02T00:42:37;24.85;;;13.13;;
84849;SDS011;75096;49.576;11.024;2024-03-02T00:44:49;27.63;;;14.70;;
84849;SDS011;75096;49.576;11.024;2024-03-02T00:45:51;26.50;;;13.00;;
84849;SDS011;75096;49.576;11.024;2024-03-02T00:46:52;26.42;;;14.13;;
84849;SDS011;75096;49.576;11.024;2024-03-02T00:47:54;26.20;;;13.75;;
84849;SDS011;75096;49.576;11.024;2024-03-02T00:48:57;26.60;;;13.10;;
84849;SDS011;75096;49.576;11.024;2024-03-02T00:50:00;27.02;;;13.10;;
84849;SDS011;75096;49.576;11.024;2024-03-02T00:51:04;25.60;;;13.43;;
84849;SDS011;75096;49.576;11.024;2024-03-02T00:52:06;27.05;;;13.13;;
84849;SDS011;75096;49.576;11.024;2024-03-02T00:53:11;26.65;;;12.93;;
84849;SDS011;75096;49.576;11.024;2024-03-02T00:54:13;25.15;;;13.00;;
84849;SDS011;75096;49.576;11.024;2024-03-02T00:55:15;28.33;;;13.93;;
84849;SDS011;75096;49.576;11.024;2024-03-02T00:56:16;24.10;;;12.50;;
84849;SDS011;75096;49.576;11.024;2024-03-02T00:57:18;24.33;;;11.57;;
84849;SDS011;75096;49.576;11.024;2024-03-02T00:58:20;26.38;;;12.65;;
84849;SDS011;75096;49.576;11.024;2024-03-02T00:59:22;24.38;;;12.50;;
84849;SDS011;75096;49.576;11.024;2024-03-02T01:00:24;24.40;;;12.93;;
84849;SDS011;75096;49.576;11.024;2024-03-02T01:01:25;25.25;;;12.68;;
84849;SDS011;75096;49.576;11.024;2024-03-02T01:02:27;25.02;;;12.90;;
84849;SDS011;75096;49.576;11.024;2024-03-02T01:03:31;23.83;;;12.88;;
84849;SDS011;75096;49.576;11.024;2024-03-02T01:04:33;24.55;;;12.27;;
84849;SDS011;75096;49.576;11.024;2024-03-02T01:05:35;25.60;;;12.77;;
84849;SDS011;75096;49.576;11.024;2024-03-02T01:06:37;29.42;;;13.02;;
84849;SDS011;75096;49.576;11.024;2024-03-02T01:07:38;25.80;;;12.48;;
84849;SDS011;75096;49.576;11.024;2024-03-02T01:08:40;24.02;;;12.57;;
84849;SDS011;75096;49.576;11.024;2024-03-02T01:09:42;24.15;;;12.57;;
84849;SDS011;75096;49.576;11.024;2024-03-02T01:10:43;26.42;;;13.88;;
84849;SDS011;75096;49.576;11.024;2024-03-02T01:11:45;24.60;;;13.25;;
84849;SDS011;75096;49.576;11.024;2024-03-02T01:12:46;24.35;;;12.48;;
84849;SDS011;75096;49.576;11.024;2024-03-02T01:13:48;27.17;;;13.60;;
84849;SDS011;75096;49.576;11.024;2024-03-02T01:14:50;26.27;;;13.73;;
84849;SDS011;75096;49.576;11.024;2024-03-02T01:15:51;25.13;;;14.07;;
84849;SDS011;75096;49.576;11.024;2024-03-02T01:16:53;30.50;;;13.05;;
84849;SDS011;75096;49.576;11.024;2024-03-02T01:17:54;27.67;;;14.68;;
84849;SDS011;75096;49.576;11.024;2024-03-02T01:18:56;27.67;;;13.02;;
84849;SDS011;75096;49.576;11.024;2024-03-02T01:19:58;28.35;;;14.05;;
84849;SDS011;75096;49.576;11.024;2024-03-02T01:20:59;28.55;;;13.63;;
84849;SDS011;75096;49.576;11.024;2024-03-02T01:22:01;28.70;;;13.57;;
84849;SDS011;75096;49.576;11.024;2024-03-02T01:23:02;27.02;;;13.77;;
84849;SDS011;75096;49.576;11.024;2024-03-02T01:24:04;27.90;;;13.45;;
84849;SDS011;75096;49.576;11.024;2024-03-02T01:25:06;26.00;;;12.55;;
84849;SDS011;75096;49.576;11.024;2024-03-02T01:26:09;25.10;;;12.77;;
84849;SDS011;75096;49.576;11.024;2024-03-02T01:27:11;25.98;;;13.55;;
84849;SDS011;75096;49.576;11.024;2024-03-02T01:28:13;25.35;;;12.57;;
84849;SDS011;75096;49.576;11.024;2024-03-02T01:29:15;28.05;;;14.00;;
84849;SDS011;75096;49.576;11.024;2024-03-02T01:30:16;27.20;;;13.18;;
84849;SDS011;75096;49.576;11.024;2024-03-02T01:31:18;30.45;;;14.10;;
84849;SDS011;75096;49.576;11.024;2024-03-02T01:32:20;26.35;;;13.15;;
84849;SDS011;75096;49.576;11.024;2024-03-02T01:33:21;28.48;;;14.50;;
84849;SDS011;75096;49.576;11.024;2024-03-02T01:34:23;26.17;;;13.52;;
84849;SDS011;75096;49.576;11.024;2024-03-02T01:35:25;29.60;;;14.43;;
84849;SDS011;75096;49.576;11.024;2024-03-02T01:36:27;29.80;;;13.32;;
84849;SDS011;75096;49.576;11.024;2024-03-02T01:37:29;27.13;;;14.88;;
84849;SDS011;75096;49.576;11.024;2024-03-02T01:38:31;29.90;;;15.27;;
84849;SDS011;75096;49.576;11.024;2024-03-02T01:39:32;27.38;;;13.60;;
84849;SDS011;75096;49.576;11.024;2024-03-02T01:40:34;26.88;;;13.63;;
84849;SDS011;75096;49.576;11.024;2024-03-02T01:41:36;28.33;;;13.55;;
84849;SDS011;75096;49.576;11.024;2024-03-02T01:42:38;25.45;;;13.85;;
84849;SDS011;75096;49.576;11.024;2024-03-02T01:43:40;30.30;;;13.05;;
84849;SDS011;75096;49.576;11.024;2024-03-02T01:44:42;26.63;;;14.13;;
84849;SDS011;75096;49.576;11.024;2024-03-02T01:45:44;29.23;;;12.65;;
84849;SDS011;75096;49.576;11.024;2024-03-02T01:46:46;26.42;;;12.80;;
84849;SDS011;75096;49.576;11.024;2024-03-02T01:47:47;28.20;;;13.93;;
84849;SDS011;75096;49.576;11.024;2024-03-02T01:48:49;25.63;;;12.85;;
84849;SDS011;75096;49.576;11.024;2024-03-02T01:49:50;26.02;;;12.38;;
84849;SDS011;75096;49.576;11.024;2024-03-02T01:50:52;28.25;;;14.23;;
84849;SDS011;75096;49.576;11.024;2024-03-02T01:51:54;26.10;;;13.68;;
84849;SDS011;75096;49.576;11.024;2024-03-02T01:52:56;29.98;;;15.15;;
84849;SDS011;75096;49.576;11.024;2024-03-02T01:53:57;30.02;;;15.10;;
84849;SDS011;75096;49.576;11.024;2024-03-02T01:54:59;31.33;;;14.93;;
84849;SDS011;75096;49.576;11.024;2024-03-02T01:56:01;29.48;;;14.27;;
84849;SDS011;75096;49.576;11.024;2024-03-02T01:57:02;30.50;;;14.25;;
84849;SDS011;75096;49.576;11.024;2024-03-02T01:58:04;27.58;;;13.32;;
84849;SDS011;75096;49.576;11.024;2024-03-02T01:59:06;27.63;;;14.27;;
84849;SDS011;75096;49.576;11.024;2024-03-02T02:00:08;28.48;;;13.68;;
84849;SDS011;75096;49.576;11.024;2024-03-02T02:01:10;25.15;;;13.10;;
84849;SDS011;75096;49.576;11.024;2024-03-02T02:02:12;29.20;;;14.23;;
84849;SDS011;75096;49.576;11.024;2024-03-02T02:03:14;27.05;;;13.98;;
84849;SDS011;75096;49.576;11.024;2024-03-02T02:04:16;28.10;;;14.25;;
84849;SDS011;75096;49.576;11.024;2024-03-02T02:05:18;27.50;;;13.45;;
84849;SDS011;75096;49.576;11.024;2024-03-02T02:06:19;29.42;;;14.48;;
84849;SDS011;75096;49.576;11.024;2024-03-02T02:07:21;25.02;;;13.38;;
84849;SDS011;75096;49.576;11.024;2024-03-02T02:08:23;26.25;;;12.95;;
84849;SDS011;75096;49.576;11.024;2024-03-02T02:09:25;26.63;;;13.43;;
84849;SDS011;75096;49.576;11.024;2024-03-02T02:10:26;23.77;;;13.23;;
84849;SDS011;75096;49.576;11.024;2024-03-02T02:11:28;28.35;;;13.98;;
84849;SDS011;75096;49.576;11.024;2024-03-02T02:12:29;27.70;;;14.23;;
84849;SDS011;75096;49.576;11.024;2024-03-02T02:13:31;26.75;;;14.32;;
84849;SDS011;75096;49.576;11.024;2024-03-02T02:14:33;29.70;;;14.20;;
84849;SDS011;75096;49.576;11.024;2024-03-02T02:15:36;28.58;;;13.90;;
84849;SDS011;75096;49.576;11.024;2024-03-02T02:16:38;25.45;;;12.63;;
84849;SDS011;75096;49.576;11.024;2024-03-02T02:17:39;25.98;;;13.27;;
84849;SDS011;75096;49.576;11.024;2024-03-02T02:18:41;25.67;;;13.43;;
84849;SDS011;75096;49.576;11.024;2024-03-02T02:19:42;28.35;;;12.75;;
84849;SDS011;75096;49.576;11.024;2024-03-02T02:20:44;29.50;;;14.05;;
84849;SDS011;75096;49.576;11.024;2024-03-02T02:21:47;26.88;;;12.35;;
84849;SDS011;75096;49.576;11.024;2024-03-02T02:22:57;24.45;;;12.70;;
84849;SDS011;75096;49.576;11.024;2024-03-02T02:23:59;23.10;;;11.90;;
84849;SDS011;75096;49.576;11.024;2024-03-02T02:25:02;28.98;;;13.80;;
84849;SDS011;75096;49.576;11.024;2024-03-02T02:26:04;23.60;;;11.93;;
84849;SDS011;75096;49.576;11.024;2024-03-02T02:27:06;23.65;;;12.25;;
84849;SDS011;75096;49.576;11.024;2024-03-02T02:28:07;24.77;;;12.48;;
84849;SDS011;75096;49.576;11.024;2024-03-02T02:29:09;23.65;;;12.50;;
84849;SDS011;75096;49.576;11.024;2024-03-02T02:30:11;23.90;;;12.48;;
84849;SDS011;75096;49.576;11.024;2024-03-02T02:31:13;26.67;;;12.43;;
84849;SDS011;75096;49.576;11.024;2024-03-02T02:32:15;25.35;;;13.07;;
84849;SDS011;75096;49.576;11.024;2024-03-02T02:33:17;22.83;;;12.88;;
84849;SDS011;75096;49.576;11.024;2024-03-02T02:34:18;25.05;;;12.20;;
84849;SDS011;75096;49.576;11.024;2024-03-02T02:35:20;25.98;;;13.43;;
84849;SDS011;75096;49.576;11.024;2024-03-02T02:36:24;24.95;;;12.75;;
84849;SDS011;75096;49.576;11.024;2024-03-02T02:37:26;22.90;;;12.18;;
84849;SDS011;75096;49.576;11.024;2024-03-02T02:38:27;25.67;;;12.73;;
84849;SDS011;75096;49.576;11.024;2024-03-02T02:39:29;22.05;;;11.77;;
84849;SDS011;75096;49.576;11.024;2024-03-02T02:40:31;22.63;;;11.93;;
84849;SDS011;75096;49.576;11.024;2024-03-02T02:41:32;24.73;;;12.32;;
84849;SDS011;75096;49.576;11.024;2024-03-02T02:42:34;24.13;;;12.50;;
84849;SDS011;75096;49.576;11.024;2024-03-02T02:43:36;24.63;;;12.20;;
84849;SDS011;75096;49.576;11.024;2024-03-02T02:44:37;23.48;;;11.80;;
84849;SDS011;75096;49.576;11.024;2024-03-02T02:45:39;25.33;;;13.43;;
84849;SDS011;75096;49.576;11.024;2024-03-02T02:46:41;26.58;;;12.60;;
84849;SDS011;75096;49.576;11.024;2024-03-02T02:47:42;24.35;;;12.05;;
84849;SDS011;75096;49.576;11.024;2024-03-02T02:48:44;25.20;;;12.07;;
84849;SDS011;75096;49.576;11.024;2024-03-02T02:49:46;24.60;;;12.05;;
84849;SDS011;75096;49.576;11.024;2024-03-02T02:50:48;25.95;;;13.45;;
84849;SDS011;75096;49.576;11.024;2024-03-02T02:51:50;27.40;;;13.23;;
84849;SDS011;75096;49.576;11.024;2024-03-02T02:52:52;23.88;;;12.20;;
84849;SDS011;75096;49.576;11.024;2024-03-02T02:53:53;24.55;;;11.30;;
84849;SDS011;75096;49.576;11.024;2024-03-02T02:54:55;28.52;;;13.25;;
84849;SDS011;75096;49.576;11.024;2024-03-02T02:55:57;26.17;;;13.18;;
84849;SDS011;75096;49.576;11.024;2024-03-02T02:56:58;24.65;;;12.50;;
84849;SDS011;75096;49.576;11.024;2024-03-02T02:58:00;32.03;;;15.00;;
84849;SDS011;75096;49.576;11.024;2024-03-02T02:59:02;27.35;;;13.30;;
84849;SDS011;75096;49.576;11.024;2024-03-02T03:00:07;30.13;;;15.45;;
84849;SDS011;75096;49.576;11.024;2024-03-02T03:01:20;27.77;;;13.73;;
84849;SDS011;75096;49.576;11.024;2024-03-02T03:02:22;27.20;;;13.18;;
84849;SDS011;75096;49.576;11.024;2024-03-02T03:03:23;28.52;;;13.70;;
84849;SDS011;75096;49.576;11.024;2024-03-02T03:04:25;28.17;;;13.48;;
84849;SDS011;75096;49.576;11.024;2024-03-02T03:05:27;32.58;;;14.82;;
84849;SDS011;75096;49.576;11.024;2024-03-02T03:06:28;30.63;;;14.90;;
84849;SDS011;75096;49.576;11.024;2024-03-02T03:07:30;30.75;;;14.60;;
84849;SDS011;75096;49.576;11.024;2024-03-02T03:08:31;31.13;;;15.43;;
84849;SDS011;75096;49.576;11.024;2024-03-02T03:09:33;30.70;;;15.48;;
84849;SDS011;75096;49.576;11.024;2024-03-02T03:10:38;28.35;;;13.65;;
84849;SDS011;75096;49.576;11.024;2024-03-02T03:11:41;31.60;;;15.10;;
84849;SDS011;75096;49.576;11.024;2024-03-02T03:12:43;35.97;;;16.45;;
84849;SDS011;75096;49.576;11.024;2024-03-02T03:13:45;31.50;;;15.30;;
84849;SDS011;75096;49.576;11.024;2024-03-02T03:14:47;32.83;;;15.27;;
84849;SDS011;75096;49.576;11.024;2024-03-02T03:15:49;31.50;;;15.02;;
84849;SDS011;75096;49.576;11.024;2024-03-02T03:16:50;29.25;;;14.75;;
84849;SDS011;75096;49.576;11.024;2024-03-02T03:17:52;33.58;;;16.60;;
84849;SDS011;75096;49.576;11.024;2024-03-02T03:18:53;30.23;;;15.07;;
84849;SDS011;75096;49.576;11.024;2024-03-02T03:19:55;33.78;;;15.88;;
84849;SDS011;75096;49.576;11.024;2024-03-02T03:20:57;33.42;;;15.85;;
84849;SDS011;75096;49.576;11.024;2024-03-02T03:21:59;32.95;;;15.77;;
84849;SDS011;75096;49.576;11.024;2024-03-02T03:23:00;32.33;;;15.18;;
84849;SDS011;75096;49.576;11.024;2024-03-02T03:24:02;32.13;;;14.77;;
84849;SDS011;75096;49.576;11.024;2024-03-02T03:25:04;34.83;;;16.83;;
84849;SDS011;75096;49.576;11.024;2024-03-02T03:26:06;31.83;;;15.50;;
84849;SDS011;75096;49.576;11.024;2024-03-02T03:27:08;28.92;;;15.43;;
84849;SDS011;75096;49.576;11.024;2024-03-02T03:28:09;32.00;;;14.80;;
84849;SDS011;75096;49.576;11.024;2024-03-02T03:29:11;29.73;;;15.10;;
84849;SDS011;75096;49.576;11.024;2024-03-02T03:30:12;33.08;;;15.10;;
84849;SDS011;75096;49.576;11.024;2024-03-02T03:31:14;33.00;;;16.92;;
84849;SDS011;75096;49.576;11.024;2024-03-02T03:32:16;33.60;;;15.73;;
84849;SDS011;75096;49.576;11.024;2024-03-02T03:33:18;32.22;;;15.75;;
84849;SDS011;75096;49.576;11.024;2024-03-02T03:34:19;30.65;;;14.60;;
84849;SDS011;75096;49.576;11.024;2024-03-02T03:35:21;30.25;;;15.40;;
84849;SDS011;75096;49.576;11.024;2024-03-02T03:36:24;33.25;;;16.55;;
84849;SDS011;75096;49.576;11.024;2024-03-02T03:37:26;33.75;;;16.35;;
84849;SDS011;75096;49.576;11.024;2024-03-02T03:38:33;30.88;;;15.93;;
84849;SDS011;75096;49.576;11.024;2024-03-02T03:39:35;32.10;;;15.32;;
84849;SDS011;75096;49.576;11.024;2024-03-02T03:40:37;33.88;;;15.90;;
84849;SDS011;75096;49.576;11.024;2024-03-02T03:41:42;37.25;;;16.15;;
84849;SDS011;75096;49.576;11.024;2024-03-02T03:42:43;33.33;;;15.27;;
84849;SDS011;75096;49.576;11.024;2024-03-02T03:43:45;31.08;;;15.10;;
84849;SDS011;75096;49.576;11.024;2024-03-02T03:44:47;28.77;;;14.43;;
84849;SDS011;75096;49.576;11.024;2024-03-02T03:45:48;30.50;;;15.73;;
84849;SDS011;75096;49.576;11.024;2024-03-02T03:46:50;29.90;;;14.80;;
84849;SDS011;75096;49.576;11.024;2024-03-02T03:47:53;31.35;;;15.65;;
84849;SDS011;75096;49.576;11.024;2024-03-02T03:48:55;31.88;;;15.45;;
84849;SDS011;75096;49.576;11.024;2024-03-02T03:49:57;33.85;;;15.93;;
84849;SDS011;75096;49.576;11.024;2024-03-02T03:50:59;28.80;;;14.18;;
84849;SDS011;75096;49.576;11.024;2024-03-02T03:52:00;34.00;;;15.68;;
84849;SDS011;75096;49.576;11.024;2024-03-02T03:53:02;33.03;;;16.27;;
84849;SDS011;75096;49.576;11.024;2024-03-02T03:54:03;31.55;;;14.65;;
84849;SDS011;75096;49.576;11.024;2024-03-02T03:55:06;31.75;;;15.57;;
84849;SDS011;75096;49.576;11.024;2024-03-02T03:56:07;31.88;;;15.60;;
84849;SDS011;75096;49.576;11.024;2024-03-02T03:57:09;30.65;;;14.57;;
84849;SDS011;75096;49.576;11.024;2024-03-02T03:58:11;27.58;;;14.70;;
84849;SDS011;75096;49.576;11.024;2024-03-02T03:59:13;30.80;;;14.85;;
84849;SDS011;75096;49.576;11.024;2024-03-02T04:00:14;31.45;;;16.30;;
84849;SDS011;75096;49.576;11.024;2024-03-02T04:01:16;30.20;;;14.70;;
84849;SDS011;75096;49.576;11.024;2024-03-02T04:02:18;31.77;;;15.43;;
84849;SDS011;75096;49.576;11.024;2024-03-02T04:03:20;34.17;;;15.30;;
84849;SDS011;75096;49.576;11.024;2024-03-02T04:04:21;29.52;;;14.77;;
84849;SDS011;75096;49.576;11.024;2024-03-02T04:05:23;30.33;;;14.40;;
84849;SDS011;75096;49.576;11.024;2024-03-02T04:06:25;30.27;;;14.50;;
84849;SDS011;75096;49.576;11.024;2024-03-02T04:07:26;29.80;;;14.93;;
84849;SDS011;75096;49.576;11.024;2024-03-02T04:08:28;29.83;;;14.18;;
84849;SDS011;75096;49.576;11.024;2024-03-02T04:09:29;26.45;;;14.10;;
84849;SDS011;75096;49.576;11.024;2024-03-02T04:10:31;27.35;;;13.90;;
84849;SDS011;75096;49.576;11.024;2024-03-02T04:11:32;27.95;;;14.07;;
84849;SDS011;75096;49.576;11.024;2024-03-02T04:12:35;27.92;;;13.23;;
84849;SDS011;75096;49.576;11.024;2024-03-02T04:13:40;31.15;;;14.50;;
84849;SDS011;75096;49.576;11.024;2024-03-02T04:14:41;27.35;;;14.23;;
84849;SDS011;75096;49.576;11.024;2024-03-02T04:15:44;32.10;;;14.52;;
84849;SDS011;75096;49.576;11.024;2024-03-02T04:16:45;28.25;;;14.38;;
84849;SDS011;75096;49.576;11.024;2024-03-02T04:17:47;29.30;;;14.25;;
84849;SDS011;75096;49.576;11.024;2024-03-02T04:18:48;26.98;;;14.77;;
84849;SDS011;75096;49.576;11.024;2024-03-02T04:19:50;29.33;;;14.23;;
84849;SDS011;75096;49.576;11.024;2024-03-02T04:20:51;30.58;;;15.32;;
84849;SDS011;75096;49.576;11.024;2024-03-02T04:21:54;30.48;;;14.20;;
84849;SDS011;75096;49.576;11.024;2024-03-02T04:22:56;28.70;;;13.50;;
84849;SDS011;75096;49.576;11.024;2024-03-02T04:23:58;27.13;;;13.20;;
84849;SDS011;75096;49.576;11.024;2024-03-02T04:25:00;32.30;;;14.00;;
84849;SDS011;75096;49.576;11.024;2024-03-02T04:26:02;30.98;;;14.85;;
84849;SDS011;75096;49.576;11.024;2024-03-02T04:27:04;27.88;;;13.85;;
84849;SDS011;75096;49.576;11.024;2024-03-02T04:28:06;28.55;;;13.85;;
84849;SDS011;75096;49.576;11.024;2024-03-02T04:29:07;27.63;;;12.90;;
84849;SDS011;75096;49.576;11.024;2024-03-02T04:30:09;27.35;;;14.00;;
84849;SDS011;75096;49.576;11.024;2024-03-02T04:31:10;28.08;;;13.25;;
84849;SDS011;75096;49.576;11.024;2024-03-02T04:32:12;24.65;;;12.98;;
84849;SDS011;75096;49.576;11.024;2024-03-02T04:33:14;29.15;;;13.30;;
84849;SDS011;75096;49.576;11.024;2024-03-02T04:34:16;33.50;;;14.32;;
84849;SDS011;75096;49.576;11.024;2024-03-02T04:35:17;24.08;;;13.00;;
84849;SDS011;75096;49.576;11.024;2024-03-02T04:36:19;27.35;;;12.95;;
84849;SDS011;75096;49.576;11.024;2024-03-02T04:37:21;25.83;;;13.55;;
84849;SDS011;75096;49.576;11.024;2024-03-02T04:38:23;26.60;;;13.63;;
84849;SDS011;75096;49.576;11.024;2024-03-02T04:39:24;26.95;;;12.15;;
84849;SDS011;75096;49.576;11.024;2024-03-02T04:40:26;30.10;;;13.95;;
84849;SDS011;75096;49.576;11.024;2024-03-02T04:41:27;25.30;;;12.95;;
84849;SDS011;75096;49.576;11.024;2024-03-02T04:42:29;27.02;;;13.73;;
84849;SDS011;75096;49.576;11.024;2024-03-02T04:43:30;27.00;;;13.95;;
84849;SDS011;75096;49.576;11.024;2024-03-02T04:44:33;28.67;;;13.82;;
84849;SDS011;75096;49.576;11.024;2024-03-02T04:45:34;25.77;;;13.38;;
84849;SDS011;75096;49.576;11.024;2024-03-02T04:46:37;27.88;;;13.52;;
84849;SDS011;75096;49.576;11.024;2024-03-02T04:47:38;28.70;;;13.80;;
84849;SDS011;75096;49.576;11.024;2024-03-02T04:48:40;25.77;;;13.27;;
84849;SDS011;75096;49.576;11.024;2024-03-02T04:49:42;24.00;;;12.40;;
84849;SDS011;75096;49.576;11.024;2024-03-02T04:50:43;27.42;;;13.40;;
84849;SDS011;75096;49.576;11.024;2024-03-02T04:51:45;24.17;;;12.43;;
84849;SDS011;75096;49.576;11.024;2024-03-02T04:52:47;25.20;;;13.68;;
84849;SDS011;75096;49.576;11.024;2024-03-02T04:53:48;24.38;;;12.05;;
84849;SDS011;75096;49.576;11.024;2024-03-02T04:54:50;24.42;;;11.98;;
84849;SDS011;75096;49.576;11.024;2024-03-02T04:56:20;27.27;;;13.15;;
84849;SDS011;75096;49.576;11.024;2024-03-02T04:57:22;23.95;;;12.20;;
84849;SDS011;75096;49.576;11.024;2024-03-02T04:58:23;28.00;;;13.02;;
84849;SDS011;75096;49.576;11.024;2024-03-02T04:59:25;24.75;;;12.77;;
84849;SDS011;75096;49.576;11.024;2024-03-02T05:00:26;22.38;;;11.38;;
84849;SDS011;75096;49.576;11.024;2024-03-02T05:01:28;27.88;;;13.13;;
84849;SDS011;75096;49.576;11.024;2024-03-02T05:02:29;22.65;;;12.40;;
84849;SDS011;75096;49.576;11.024;2024-03-02T05:03:31;25.05;;;12.98;;
84849;SDS011;75096;49.576;11.024;2024-03-02T05:04:36;25.25;;;12.18;;
84849;SDS011;75096;49.576;11.024;2024-03-02T05:05:37;26.88;;;13.02;;
84849;SDS011;75096;49.576;11.024;2024-03-02T05:06:39;24.63;;;12.45;;
84849;SDS011;75096;49.576;11.024;2024-03-02T05:07:42;23.38;;;12.60;;
84849;SDS011;75096;49.576;11.024;2024-03-02T05:08:45;24.08;;;12.25;;
84849;SDS011;75096;49.576;11.024;2024-03-02T05:09:46;21.02;;;12.05;;
84849;SDS011;75096;49.576;11.024;2024-03-02T05:11:51;23.13;;;11.80;;
84849;SDS011;75096;49.576;11.024;2024-03-02T05:13:11;24.10;;;11.80;;
84849;SDS011;75096;49.576;11.024;2024-03-02T05:14:13;26.75;;;13.02;;
84849;SDS011;75096;49.576;11.024;2024-03-02T05:15:14;25.17;;;10.82;;
84849;SDS011;75096;49.576;11.024;2024-03-02T05:16:16;24.75;;;12.48;;
84849;SDS011;75096;49.576;11.024;2024-03-02T05:17:18;25.05;;;12.60;;
84849;SDS011;75096;49.576;11.024;2024-03-02T05:18:19;26.10;;;13.32;;
84849;SDS011;75096;49.576;11.024;2024-03-02T05:19:21;24.02;;;11.73;;
84849;SDS011;75096;49.576;11.024;2024-03-02T05:20:22;22.27;;;11.93;;
84849;SDS011;75096;49.576;11.024;2024-03-02T05:21:24;22.42;;;11.07;;
84849;SDS011;75096;49.576;11.024;2024-03-02T05:22:25;24.70;;;12.13;;
84849;SDS011;75096;49.576;11.024;2024-03-02T05:23:27;25.70;;;12.80;;
84849;SDS011;75096;49.576;11.024;2024-03-02T05:24:29;24.77;;;12.38;;
84849;SDS011;75096;49.576;11.024;2024-03-02T05:25:30;22.33;;;12.05;;
84849;SDS011;75096;49.576;11.024;2024-03-02T05:26:33;27.77;;;13.65;;
84849;SDS011;75096;49.576;11.024;2024-03-02T05:27:34;23.23;;;12.27;;
84849;SDS011;75096;49.576;11.024;2024-03-02T05:28:36;26.17;;;12.35;;
84849;SDS011;75096;49.576;11.024;2024-03-02T05:29:38;24.23;;;12.70;;
84849;SDS011;75096;49.576;11.024;2024-03-02T05:30:42;22.70;;;12.32;;
84849;SDS011;75096;49.576;11.024;2024-03-02T05:31:43;24.23;;;12.23;;
84849;SDS011;75096;49.576;11.024;2024-03-02T05:32:45;24.77;;;12.82;;
84849;SDS011;75096;49.576;11.024;2024-03-02T05:33:47;23.50;;;11.90;;
84849;SDS011;75096;49.576;11.024;2024-03-02T05:34:50;25.52;;;11.70;;
84849;SDS011;75096;49.576;11.024;2024-03-02T05:35:51;26.73;;;13.18;;
84849;SDS011;75096;49.576;11.024;2024-03-02T05:36:53;19.95;;;11.23;;
84849;SDS011;75096;49.576;11.024;2024-03-02T05:37:55;24.83;;;12.48;;
84849;SDS011;75096;49.576;11.024;2024-03-02T05:38:57;24.15;;;12.35;;
84849;SDS011;75096;49.576;11.024;2024-03-02T05:39:58;24.08;;;11.63;;
84849;SDS011;75096;49.576;11.024;2024-03-02T05:41:01;25.35;;;12.70;;
84849;SDS011;75096;49.576;11.024;2024-03-02T05:42:02;24.25;;;11.65;;
84849;SDS011;75096;49.576;11.024;2024-03-02T05:43:04;24.80;;;11.90;;
84849;SDS011;75096;49.576;11.024;2024-03-02T05:44:06;23.73;;;11.27;;
84849;SDS011;75096;49.576;11.024;2024-03-02T05:45:07;25.13;;;12.23;;
84849;SDS011;75096;49.576;11.024;2024-03-02T05:46:09;24.63;;;12.55;;
84849;SDS011;75096;49.576;11.024;2024-03-02T05:47:10;26.45;;;12.38;;
84849;SDS011;75096;49.576;11.024;2024-03-02T05:48:12;24.75;;;12.90;;
84849;SDS011;75096;49.576;11.024;2024-03-02T05:49:14;26.35;;;12.88;;
84849;SDS011;75096;49.576;11.024;2024-03-02T05:50:15;25.00;;;12.68;;
84849;SDS011;75096;49.576;11.024;2024-03-02T05:51:17;23.15;;;11.50;;
84849;SDS011;75096;49.576;11.024;2024-03-02T05:52:19;25.20;;;12.85;;
84849;SDS011;75096;49.576;11.024;2024-03-02T05:53:22;26.40;;;12.93;;
84849;SDS011;75096;49.576;11.024;2024-03-02T05:54:23;25.35;;;12.07;;
84849;SDS011;75096;49.576;11.024;2024-03-02T05:55:25;27.75;;;12.52;;
84849;SDS011;75096;49.576;11.024;2024-03-02T05:56:27;24.23;;;12.63;;
84849;SDS011;75096;49.576;11.024;2024-03-02T05:57:29;24.23;;;12.82;;
84849;SDS011;75096;49.576;11.024;2024-03-02T05:58:45;25.25;;;12.20;;
84849;SDS011;75096;49.576;11.024;2024-03-02T06:00:14;25.02;;;11.25;;
84849;SDS011;75096;49.576;11.024;2024-03-02T06:01:18;22.17;;;11.50;;